Time;durP1;ratioP1;P1;durP2;ratioP2;P2;SDS_P1;SDS_P2;PMS_P1;PMS_P2;Temp;Humidity;BMP_temperature;BMP_pressure;BME280_temperature;BME280_humidity;BME280_pressure;Samples;Min_cycle;Max_cycle;Signal;HPM_P1;HPM_P2
2023/03/30 00:00:52;;;;;;;6.78;3.03;;;;;;;19.13;52.61;99330.31;4992789;28;20073;-65
2023/03/30 00:03:18;;;;;;;6.10;3.40;;;;;;;19.10;52.56;99334.91;4992808;28;20408;-64
2023/03/30 00:05:45;;;;;;;4.90;3.10;;;;;;;19.12;52.41;99335.69;4992226;28;20101;-65
2023/03/30 00:08:13;;;;;;;5.38;3.22;;;;;;;19.10;52.51;99346.34;4992721;28;20036;-65
2023/03/30 00:10:39;;;;;;;6.78;3.20;;;;;;;19.09;52.40;99327.91;4992702;28;20034;-65
2023/03/30 00:13:06;;;;;;;4.68;2.72;;;;;;;19.08;52.53;99331.50;5009853;28;20032;-65
2023/03/30 00:15:33;;;;;;;5.05;2.80;;;;;;;19.07;52.39;99317.41;5012030;28;20480;-66
2023/03/30 00:17:58;;;;;;;5.05;3.10;;;;;;;19.07;52.47;99324.50;5011880;28;20033;-65
2023/03/30 00:20:24;;;;;;;4.75;2.75;;;;;;;19.07;52.54;99320.06;5011794;28;20092;-65
2023/03/30 00:22:49;;;;;;;5.40;3.15;;;;;;;19.03;52.69;99319.38;4996797;28;20113;-65
2023/03/30 00:25:16;;;;;;;5.15;2.95;;;;;;;19.05;52.31;99321.94;4992577;28;20076;-65
2023/03/30 00:27:42;;;;;;;6.82;2.92;;;;;;;19.03;52.55;99315.91;4992389;28;20525;-64
2023/03/30 00:30:14;;;;;;;5.80;2.92;;;;;;;19.03;52.41;99319.38;4992349;28;20085;-66
2023/03/30 00:32:40;;;;;;;4.88;2.95;;;;;;;19.01;52.62;99315.94;4992611;28;20050;-65
2023/03/30 00:35:06;;;;;;;6.47;2.90;;;;;;;19.02;52.54;99328.22;4993727;28;20054;-64
2023/03/30 00:37:32;;;;;;;4.90;2.60;;;;;;;19.00;52.49;99314.25;4996234;28;20030;-65
2023/03/30 00:39:57;;;;;;;4.57;2.30;;;;;;;18.99;52.38;99319.63;4996459;28;20084;-64
2023/03/30 00:42:23;;;;;;;5.38;2.85;;;;;;;18.97;52.58;99319.69;4996467;28;20058;-65
2023/03/30 00:45:07;;;;;;;5.43;2.97;;;;;;;18.96;52.37;99323.28;5002935;28;20112;-63
2023/03/30 00:47:40;;;;;;;6.03;2.83;;;;;;;18.97;52.47;99324.09;5015847;28;20056;-65
2023/03/30 00:50:06;;;;;;;5.80;3.15;;;;;;;18.97;52.58;99322.34;5015369;28;20487;-65
2023/03/30 00:52:36;;;;;;;6.00;3.00;;;;;;;18.96;52.46;99323.28;5016033;28;20034;-67
2023/03/30 00:55:03;;;;;;;4.80;2.60;;;;;;;18.98;52.26;99326.69;4995943;28;20084;-65
2023/03/30 00:57:31;;;;;;;4.88;2.70;;;;;;;18.94;52.56;99330.44;4996005;28;20103;-65
2023/03/30 00:59:56;;;;;;;4.95;2.92;;;;;;;18.95;52.50;99329.50;5012626;28;20026;-66
2023/03/30 01:02:22;;;;;;;5.95;2.95;;;;;;;18.93;52.48;99328.72;5015711;28;20510;-65
2023/03/30 01:04:52;;;;;;;4.78;2.50;;;;;;;18.95;52.33;99337.44;5015167;28;20034;-65
2023/03/30 01:07:18;;;;;;;6.15;3.05;;;;;;;18.96;52.35;99339.13;5015398;28;20033;-66
2023/03/30 01:09:44;;;;;;;4.88;2.88;;;;;;;18.94;52.67;99335.75;5000894;28;20057;-65
2023/03/30 01:12:10;;;;;;;4.25;2.53;;;;;;;18.96;52.19;99347.06;4995663;28;20058;-64
2023/03/30 01:14:37;;;;;;;3.83;2.33;;;;;;;18.94;52.33;99341.03;4996038;28;20061;-66
2023/03/30 01:17:15;;;;;;;5.38;2.53;;;;;;;18.93;52.37;99344.59;4995671;28;20046;-65
2023/03/30 01:20:11;;;;;;;5.95;3.05;;;;;;;18.95;52.55;99353.31;5009182;28;20038;-65
2023/03/30 01:22:55;;;;;;;4.97;2.88;;;;;;;18.95;52.55;99353.31;5015498;28;20038;-65
2023/03/30 01:25:48;;;;;;;4.45;2.28;;;;;;;18.92;52.41;99350.81;5015142;28;20026;-65
2023/03/30 01:28:20;;;;;;;4.05;2.33;;;;;;;18.93;52.38;99363.09;5012703;28;20507;-65
2023/03/30 01:31:28;;;;;;;4.47;2.63;;;;;;;18.92;52.13;99353.44;4995676;28;20026;-66
2023/03/30 01:34:30;;;;;;;5.95;2.97;;;;;;;18.94;52.39;99367.47;4987040;28;20038;-66
2023/03/30 01:37:01;;;;;;;4.93;2.60;;;;;;;18.93;52.21;99373.66;4995444;28;20503;-66
2023/03/30 01:39:46;;;;;;;4.10;2.35;;;;;;;18.92;52.24;99388.69;4995476;28;20032;-66
2023/03/30 01:42:43;;;;;;;4.03;2.47;;;;;;;18.90;52.57;99397.63;4995318;28;20026;-65
2023/03/30 01:45:09;;;;;;;4.72;2.70;;;;;;;18.90;52.53;99406.41;4994796;28;20104;-65
2023/03/30 01:47:40;;;;;;;3.97;2.33;;;;;;;18.91;52.29;99436.34;5009058;28;20069;-65
2023/03/30 01:50:10;;;;;;;5.07;2.95;;;;;;;18.90;52.42;99439.94;5014532;28;20042;-65
2023/03/30 01:52:41;;;;;;;4.13;2.50;;;;;;;18.89;52.43;99441.72;5014757;28;20037;-64
2023/03/30 01:55:16;;;;;;;4.68;2.75;;;;;;;18.90;52.43;99429.38;4975461;28;20035;-64
2023/03/30 01:57:56;;;;;;;3.25;2.20;;;;;;;18.89;52.53;99432.94;4980133;28;20105;-66
2023/03/30 02:00:24;;;;;;;5.10;3.08;;;;;;;18.88;52.36;99421.50;4994877;28;20031;-66
2023/03/30 02:02:58;;;;;;;4.25;2.60;;;;;;;18.88;52.54;99425.94;4994576;28;20018;-65
2023/03/30 02:05:26;;;;;;;4.13;2.30;;;;;;;18.87;52.54;99432.16;4995009;28;20525;-65
2023/03/30 02:08:00;;;;;;;3.78;2.33;;;;;;;18.88;52.40;99428.56;5000646;28;20447;-64
2023/03/30 02:10:29;;;;;;;4.00;2.55;;;;;;;18.88;52.24;99431.22;5014389;28;20138;-65
2023/03/30 02:12:57;;;;;;;4.35;2.55;;;;;;;18.87;52.38;99434.81;5011049;28;20045;-65
2023/03/30 02:15:25;;;;;;;4.30;2.50;;;;;;;18.85;52.33;99415.53;5014301;28;20061;-66
2023/03/30 02:17:51;;;;;;;4.15;2.50;;;;;;;18.85;52.43;99415.53;5008277;28;20101;-64
2023/03/30 02:20:17;;;;;;;5.18;2.35;;;;;;;18.86;52.38;99422.53;4994701;28;20126;-67
2023/03/30 02:22:43;;;;;;;3.95;2.15;;;;;;;18.86;52.50;99426.03;5004736;28;20551;-66
2023/03/30 02:25:09;;;;;;;4.28;2.70;;;;;;;18.84;52.46;99422.59;4994645;28;20472;-66
2023/03/30 02:27:36;;;;;;;4.15;2.15;;;;;;;18.84;52.41;99419.13;4994105;28;20045;-66
2023/03/30 02:30:03;;;;;;;3.17;1.98;;;;;;;18.83;52.20;99417.41;4994648;28;20034;-66
2023/03/30 02:32:42;;;;;;;3.95;2.30;;;;;;;18.84;52.40;99404.09;4994026;28;20022;-65
2023/03/30 02:35:23;;;;;;;4.93;2.03;;;;;;;18.84;52.15;99403.25;4994351;28;20038;-66
2023/03/30 02:37:50;;;;;;;3.88;2.40;;;;;;;18.82;52.40;99400.69;4998700;28;20072;-67
2023/03/30 02:40:40;;;;;;;3.47;2.33;;;;;;;18.80;52.31;99402.56;5014019;28;20032;-67
2023/03/30 02:43:30;;;;;;;3.53;2.42;;;;;;;18.80;52.23;99407.84;5013840;28;20022;-65
2023/03/30 02:46:08;;;;;;;4.60;2.00;;;;;;;18.77;52.44;99414.16;5013547;28;20030;-65
2023/03/30 02:48:45;;;;;;;4.15;2.55;;;;;;;18.79;52.25;99417.56;5003641;28;20169;-65
2023/03/30 02:51:17;;;;;;;3.72;2.25;;;;;;;18.81;52.24;99416.63;4996004;28;20030;-64
2023/03/30 02:54:03;;;;;;;4.18;2.20;;;;;;;18.78;52.52;99431.72;5004691;28;20428;-66
2023/03/30 02:56:43;;;;;;;4.10;2.03;;;;;;;18.78;52.32;99442.28;4979713;28;20038;-64
2023/03/30 02:59:18;;;;;;;4.57;2.53;;;;;;;18.80;52.45;99455.44;4990799;28;20025;-65
2023/03/30 03:01:49;;;;;;;4.68;2.53;;;;;;;18.77;52.44;99455.59;5012896;28;20062;-65
2023/03/30 03:04:17;;;;;;;5.65;2.55;;;;;;;18.77;52.05;99467.03;5013395;28;20060;-65
2023/03/30 03:06:43;;;;;;;4.25;2.40;;;;;;;18.78;52.36;99467.88;5013259;28;20057;-66
2023/03/30 03:09:09;;;;;;;3.20;1.90;;;;;;;18.77;52.48;99489.94;5000805;28;20053;-65
2023/03/30 03:11:34;;;;;;;3.85;2.08;;;;;;;18.78;52.06;99494.28;4993696;28;20098;-65
2023/03/30 03:14:00;;;;;;;3.50;2.00;;;;;;;18.78;52.12;99491.66;4993671;28;20554;-66
2023/03/30 03:16:25;;;;;;;3.72;2.20;;;;;;;18.79;52.39;99501.28;4993338;28;20085;-66
2023/03/30 03:18:51;;;;;;;3.65;2.03;;;;;;;18.77;52.45;99511.97;4993497;28;20492;-66
2023/03/30 03:21:17;;;;;;;4.38;2.20;;;;;;;18.79;52.35;99518.03;4993676;28;20492;-67
2023/03/30 03:23:42;;;;;;;3.92;2.20;;;;;;;18.77;52.20;99519.91;4993335;28;20030;-65
2023/03/30 03:26:10;;;;;;;3.42;2.10;;;;;;;18.77;52.40;99534.88;5000172;28;20734;-67
2023/03/30 03:28:36;;;;;;;3.80;1.77;;;;;;;18.77;52.60;99535.75;5012657;28;20037;-66
2023/03/30 03:31:02;;;;;;;4.97;2.17;;;;;;;18.77;52.41;99551.63;5012962;28;20395;-66
2023/03/30 03:33:30;;;;;;;4.60;2.30;;;;;;;18.76;52.42;99549.91;5012866;28;20025;-66
2023/03/30 03:35:58;;;;;;;3.67;2.08;;;;;;;18.75;52.27;99558.75;5012857;28;20029;-65
2023/03/30 03:38:25;;;;;;;4.20;2.03;;;;;;;18.74;52.18;99559.69;5010550;28;20451;-65
2023/03/30 03:40:55;;;;;;;3.78;2.25;;;;;;;18.76;52.38;99555.19;4993200;28;20046;-66
2023/03/30 03:43:22;;;;;;;3.05;1.85;;;;;;;18.77;52.16;99567.47;4992706;28;20132;-65
2023/03/30 03:45:49;;;;;;;2.40;1.80;;;;;;;18.77;52.24;99580.69;4992965;28;20029;-66
2023/03/30 03:48:16;;;;;;;3.70;2.05;;;;;;;18.75;52.31;99579.06;4992960;28;20396;-66
2023/03/30 03:50:43;;;;;;;3.17;2.00;;;;;;;18.76;52.40;99576.34;5011811;28;20041;-66
2023/03/30 03:53:10;;;;;;;3.47;2.08;;;;;;;18.75;52.40;99585.19;5007922;28;20019;-66
2023/03/30 03:55:35;;;;;;;2.40;1.65;;;;;;;18.75;52.38;99590.47;4992765;28;20476;-65
2023/03/30 03:58:03;;;;;;;5.10;2.20;;;;;;;18.75;52.19;99590.47;4992629;28;20065;-65
2023/03/30 04:00:29;;;;;;;3.65;1.88;;;;;;;18.75;52.43;99594.91;4992873;28;20457;-66
2023/03/30 04:02:55;;;;;;;3.55;1.80;;;;;;;18.73;52.38;99605.56;5011525;28;20538;-66
2023/03/30 04:05:21;;;;;;;3.35;1.98;;;;;;;18.73;52.31;99612.63;5012359;28;20030;-64
2023/03/30 04:07:47;;;;;;;3.25;1.85;;;;;;;18.75;52.41;99614.25;5012265;28;20480;-66
2023/03/30 04:10:13;;;;;;;3.83;2.05;;;;;;;18.73;52.36;99608.19;5012149;28;20100;-66
2023/03/30 04:12:39;;;;;;;4.20;1.90;;;;;;;18.71;52.66;99625.94;5006200;28;20038;-66
2023/03/30 04:15:06;;;;;;;3.75;2.08;;;;;;;18.73;52.34;99634.63;4992706;28;20069;-66
2023/03/30 04:17:35;;;;;;;3.60;2.00;;;;;;;18.73;52.49;99645.22;4992428;28;20033;-65
2023/03/30 04:20:03;;;;;;;3.10;2.05;;;;;;;18.72;52.42;99654.06;4992565;28;20030;-65
2023/03/30 04:22:32;;;;;;;4.30;2.10;;;;;;;18.74;52.29;99651.38;4992653;28;20089;-66
2023/03/30 04:25:00;;;;;;;4.18;1.80;;;;;;;18.72;52.28;99654.06;4992525;28;20041;-66
2023/03/30 04:27:27;;;;;;;3.92;2.10;;;;;;;18.71;52.54;99667.38;4992175;28;20026;-65
2023/03/30 04:29:56;;;;;;;3.67;2.00;;;;;;;18.70;52.51;99666.50;4992728;28;20101;-66
2023/03/30 04:32:23;;;;;;;3.25;2.10;;;;;;;18.70;52.60;99674.41;5011075;28;20048;-65
2023/03/30 04:34:53;;;;;;;4.43;2.40;;;;;;;18.69;52.61;99669.22;5012038;28;20034;-66
2023/03/30 04:37:22;;;;;;;2.90;1.90;;;;;;;18.69;52.45;99666.59;5011970;28;20037;-66
2023/03/30 04:39:49;;;;;;;3.25;1.80;;;;;;;18.69;52.40;99664.78;5011962;28;20022;-65
2023/03/30 04:42:14;;;;;;;3.20;2.10;;;;;;;18.65;52.89;99672.00;5011709;28;20037;-65
2023/03/30 04:44:39;;;;;;;3.08;1.70;;;;;;;18.67;52.33;99676.34;5011964;28;20029;-66
2023/03/30 04:47:05;;;;;;;3.28;2.10;;;;;;;18.68;52.51;99680.75;5011815;28;20456;-65
2023/03/30 04:49:31;;;;;;;3.40;2.03;;;;;;;18.65;52.54;99687.03;5011875;28;20109;-66
2023/03/30 04:51:56;;;;;;;3.13;1.70;;;;;;;18.65;52.59;99690.50;5012034;28;20041;-65
2023/03/30 04:54:22;;;;;;;3.20;1.83;;;;;;;18.65;52.52;99690.50;4997626;28;20472;-65
2023/03/30 04:56:47;;;;;;;3.92;2.00;;;;;;;18.66;52.82;99691.38;4994415;28;20033;-65
2023/03/30 04:59:13;;;;;;;3.42;2.05;;;;;;;18.65;52.61;99689.69;4994501;28;20124;-65
2023/03/30 05:01:38;;;;;;;4.25;2.00;;;;;;;18.65;52.69;99684.38;4987886;28;20531;-65
2023/03/30 05:04:04;;;;;;;3.00;1.75;;;;;;;18.60;52.93;99671.38;4980620;28;20105;-64
2023/03/30 05:06:29;;;;;;;4.55;2.17;;;;;;;18.61;52.59;99677.53;4972838;28;20029;-63
2023/03/30 05:08:55;;;;;;;4.70;2.10;;;;;;;18.58;52.81;99675.00;4982651;28;20440;-64
2023/03/30 05:11:21;;;;;;;3.17;1.90;;;;;;;18.58;52.59;99673.25;4981256;28;20062;-64
2023/03/30 05:13:49;;;;;;;2.55;1.70;;;;;;;18.58;52.75;99667.09;4984429;28;20202;-64
2023/03/30 05:16:15;;;;;;;3.30;2.00;;;;;;;18.54;52.74;99666.38;4990087;28;20030;-64
2023/03/30 05:18:40;;;;;;;4.22;2.00;;;;;;;18.59;52.97;99680.22;4990393;28;20109;-64
2023/03/30 05:21:06;;;;;;;4.95;1.92;;;;;;;18.56;53.03;99675.09;4976142;28;20063;-63
2023/03/30 05:23:31;;;;;;;4.13;2.20;;;;;;;18.55;53.03;99669.88;4995758;28;20046;-64
2023/03/30 05:25:57;;;;;;;3.55;1.75;;;;;;;18.56;53.09;99668.94;4995272;28;20555;-70
2023/03/30 05:28:22;;;;;;;3.15;2.03;;;;;;;18.55;53.12;99672.53;4994464;28;20577;-70
2023/03/30 05:30:52;;;;;;;4.03;1.98;;;;;;;18.54;53.16;99678.75;4995373;28;20023;-70
2023/03/30 05:33:18;;;;;;;3.97;2.00;;;;;;;18.52;53.26;99684.97;4995496;28;20487;-71
2023/03/30 05:35:43;;;;;;;3.25;1.88;;;;;;;18.53;53.17;99696.38;4986063;28;20069;-70
2023/03/30 05:38:09;;;;;;;4.72;2.38;;;;;;;18.55;53.44;99712.16;4995526;28;20094;-70
2023/03/30 05:40:34;;;;;;;3.63;1.83;;;;;;;18.55;53.64;99712.16;4994839;28;20050;-71
2023/03/30 05:43:00;;;;;;;6.05;2.03;;;;;;;18.52;54.06;99706.13;4995384;28;20112;-71
2023/03/30 05:45:25;;;;;;;4.78;1.83;;;;;;;18.56;54.08;99708.59;5000824;28;20691;-71
2023/03/30 05:47:53;;;;;;;6.22;1.90;;;;;;;18.56;54.55;99712.09;5013969;28;20033;-70
2023/03/30 05:50:19;;;;;;;5.22;2.20;;;;;;;18.57;54.26;99712.94;5014613;28;20057;-69
2023/03/30 05:52:45;;;;;;;6.10;2.33;;;;;;;18.57;54.70;99723.50;5013688;28;20054;-70
2023/03/30 05:55:10;;;;;;;5.20;2.08;;;;;;;18.59;54.96;99724.31;4998226;28;20491;-70
2023/03/30 05:57:37;;;;;;;5.47;2.25;;;;;;;18.57;55.00;99723.50;5014904;28;20050;-70
2023/03/30 06:00:05;;;;;;;4.40;1.83;;;;;;;18.60;54.75;99720.75;5014727;28;20049;-70
2023/03/30 06:02:31;;;;;;;4.97;2.10;;;;;;;18.60;54.89;99723.38;5008152;28;20492;-69
2023/03/30 06:04:56;;;;;;;4.30;2.00;;;;;;;18.60;55.19;99737.44;4994858;28;20022;-70
2023/03/30 06:07:23;;;;;;;6.00;2.17;;;;;;;18.60;55.05;99741.88;5008570;28;20030;-70
2023/03/30 06:09:49;;;;;;;4.40;2.05;;;;;;;18.60;55.09;99765.69;5013984;28;20091;-71
2023/03/30 06:12:14;;;;;;;5.25;2.13;;;;;;;18.59;54.99;99774.53;5014187;28;20026;-69
2023/03/30 06:14:40;;;;;;;5.15;1.95;;;;;;;18.60;55.00;99776.25;5014482;28;20030;-70
2023/03/30 06:17:06;;;;;;;4.47;2.03;;;;;;;18.59;55.40;99774.53;5002551;28;20114;-73
2023/03/30 06:19:31;;;;;;;7.00;2.20;;;;;;;18.58;55.28;99783.38;4990943;28;21614;-68
2023/03/30 06:21:57;;;;;;;5.75;2.25;;;;;;;18.60;55.20;99792.09;4992083;28;20038;-69
2023/03/30 06:24:23;;;;;;;6.82;2.60;;;;;;;18.59;55.27;99793.88;4993489;28;20468;-71
2023/03/30 06:26:48;;;;;;;6.90;1.95;;;;;;;18.60;55.32;99792.09;4994432;28;20026;-69
2023/03/30 06:29:14;;;;;;;5.82;2.60;;;;;;;18.60;55.08;99797.38;4994574;28;20184;-69
2023/03/30 06:31:39;;;;;;;7.03;2.38;;;;;;;18.60;55.02;99797.38;4994289;28;20506;-71
2023/03/30 06:34:05;;;;;;;8.35;2.40;;;;;;;18.59;55.32;99801.81;4989525;28;20065;-70
2023/03/30 06:36:30;;;;;;;4.25;1.83;;;;;;;18.60;55.20;99802.69;4994086;28;20120;-70
2023/03/30 06:38:56;;;;;;;5.95;2.30;;;;;;;18.60;55.12;99798.22;4993938;28;20425;-69
2023/03/30 06:41:21;;;;;;;4.43;2.20;;;;;;;18.60;55.11;99795.59;4992867;28;20026;-71
2023/03/30 06:43:47;;;;;;;3.97;2.00;;;;;;;18.60;55.11;99802.69;4993999;28;20089;-68
2023/03/30 06:46:13;;;;;;;4.25;1.77;;;;;;;18.61;55.26;99802.63;4997585;28;20391;-71
2023/03/30 06:48:39;;;;;;;5.30;2.13;;;;;;;18.63;54.99;99799.88;5012813;28;20044;-70
2023/03/30 06:51:05;;;;;;;4.88;2.00;;;;;;;18.63;55.07;99807.81;5012796;28;20034;-70
2023/03/30 06:53:31;;;;;;;6.07;1.80;;;;;;;18.62;55.16;99800.81;5007970;28;20117;-70
2023/03/30 06:55:57;;;;;;;2.72;1.75;;;;;;;18.63;55.24;99807.81;5003014;28;20105;-69
2023/03/30 06:58:24;;;;;;;4.75;1.92;;;;;;;18.65;54.89;99811.25;5003334;28;20021;-69
2023/03/30 07:00:51;;;;;;;5.32;1.80;;;;;;;18.67;54.86;99814.69;5013220;28;20125;-70
2023/03/30 07:03:20;;;;;;;4.85;1.90;;;;;;;18.64;54.90;99820.97;5013199;28;20080;-69
2023/03/30 07:05:49;;;;;;;4.65;2.10;;;;;;;18.69;54.67;99817.25;5013175;28;20088;-70
2023/03/30 07:08:16;;;;;;;4.57;2.00;;;;;;;18.70;54.88;99819.81;4985217;28;20026;-70
2023/03/30 07:10:42;;;;;;;6.43;2.28;;;;;;;18.68;55.10;99821.69;5013134;28;20026;-70
2023/03/30 07:13:08;;;;;;;5.00;2.10;;;;;;;18.70;54.70;99825.09;5013158;28;20018;-69
2023/03/30 07:15:33;;;;;;;4.60;1.90;;;;;;;18.72;54.58;99817.97;5010568;28;20030;-70
2023/03/30 07:17:59;;;;;;;5.30;2.28;;;;;;;18.70;55.11;99830.38;5010845;28;20040;-70
2023/03/30 07:20:24;;;;;;;4.50;2.05;;;;;;;18.72;54.93;99828.53;4995326;28;20065;-70
2023/03/30 07:22:50;;;;;;;3.95;2.10;;;;;;;18.71;54.86;99832.13;5012489;28;20026;-69
2023/03/30 07:25:16;;;;;;;6.85;2.50;;;;;;;18.73;54.97;99846.13;5012962;28;20115;-71
2023/03/30 07:27:41;;;;;;;5.15;2.13;;;;;;;18.73;54.85;99843.47;4997273;28;20542;-70
2023/03/30 07:30:09;;;;;;;5.43;2.15;;;;;;;18.73;54.70;99839.97;4993221;28;20077;-69
2023/03/30 07:32:35;;;;;;;6.68;2.63;;;;;;;18.73;54.62;99832.91;4993056;28;20061;-70
2023/03/30 07:35:00;;;;;;;5.88;2.20;;;;;;;18.75;54.66;99838.97;4991629;28;20109;-70
2023/03/30 07:37:27;;;;;;;4.88;2.15;;;;;;;18.77;54.72;99826.56;5005713;28;20477;-68
2023/03/30 07:39:53;;;;;;;8.13;2.78;;;;;;;18.81;54.56;99821.09;5012777;28;20369;-70
2023/03/30 07:42:20;;;;;;;3.85;2.13;;;;;;;18.82;54.51;99823.69;5012601;28;20484;-70
2023/03/30 07:44:45;;;;;;;6.00;2.28;;;;;;;18.81;54.52;99823.75;5011951;28;20037;-71
2023/03/30 07:47:11;;;;;;;5.97;2.25;;;;;;;18.79;54.49;99814.13;5001470;28;20076;-70
2023/03/30 07:49:36;;;;;;;4.10;2.40;;;;;;;18.81;54.36;99810.53;5001469;28;20500;-69
2023/03/30 07:52:02;;;;;;;8.35;2.70;;;;;;;18.85;54.32;99807.69;5012402;28;20476;-69
2023/03/30 07:54:27;;;;;;;6.47;2.78;;;;;;;18.86;54.48;99813.81;4997638;28;20116;-69
2023/03/30 07:56:53;;;;;;;4.95;2.22;;;;;;;18.87;54.50;99820.81;5000900;28;20022;-71
2023/03/30 07:59:20;;;;;;;4.22;2.28;;;;;;;18.88;54.40;99827.81;5012414;28;20495;-70
2023/03/30 08:01:46;;;;;;;6.43;2.65;;;;;;;18.87;54.54;99828.75;5012435;28;20381;-70
2023/03/30 08:04:12;;;;;;;4.43;2.15;;;;;;;18.86;54.47;99827.03;5012009;28;20034;-70
2023/03/30 08:06:38;;;;;;;4.10;2.13;;;;;;;18.87;54.46;99836.69;5006176;28;20188;-69
2023/03/30 08:09:04;;;;;;;5.75;2.22;;;;;;;18.89;54.15;99830.41;4992527;28;20080;-69
2023/03/30 08:11:30;;;;;;;5.10;2.10;;;;;;;18.91;54.42;99846.19;4992742;28;20112;-70
2023/03/30 08:13:56;;;;;;;5.47;2.20;;;;;;;18.91;54.26;99836.50;4992569;28;20035;-69
2023/03/30 08:16:22;;;;;;;6.25;1.98;;;;;;;18.95;54.25;99845.16;4995846;28;20041;-70
2023/03/30 08:18:47;;;;;;;4.03;2.20;;;;;;;18.94;54.10;99851.38;5011599;28;20049;-70
2023/03/30 08:21:13;;;;;;;4.45;2.17;;;;;;;18.97;54.23;99850.34;5011778;28;20042;-69
2023/03/30 08:23:38;;;;;;;5.72;2.40;;;;;;;18.99;54.14;99851.97;4993182;28;20026;-70
2023/03/30 08:26:05;;;;;;;4.45;2.13;;;;;;;19.00;54.01;99850.22;5005178;28;20112;-70
2023/03/30 08:28:30;;;;;;;4.57;2.45;;;;;;;19.02;54.06;99867.72;5011750;28;20034;-70
2023/03/30 08:31:03;;;;;;;5.00;2.30;;;;;;;19.04;53.91;99871.19;5011921;28;20100;-69
2023/03/30 08:33:28;;;;;;;6.03;2.40;;;;;;;19.07;53.97;99893.16;5011578;28;20475;-69
2023/03/30 08:35:54;;;;;;;7.05;2.08;;;;;;;19.08;53.91;99900.16;5012016;28;20117;-70
2023/03/30 08:38:19;;;;;;;4.03;2.40;;;;;;;19.08;53.82;99902.78;4998780;28;20037;-70
2023/03/30 08:40:47;;;;;;;4.40;2.40;;;;;;;19.10;53.95;99900.91;4992380;28;20034;-71
2023/03/30 08:43:29;;;;;;;6.07;2.50;;;;;;;19.09;53.91;99893.91;4992291;28;20034;-68
2023/03/30 08:45:59;;;;;;;4.95;1.98;;;;;;;19.10;53.65;99890.34;4992222;28;20038;-70
2023/03/30 08:48:27;;;;;;;4.65;2.53;;;;;;;19.11;53.66;99879.69;4994253;28;20104;-70
2023/03/30 08:51:18;;;;;;;6.78;2.60;;;;;;;19.11;53.68;99881.47;5011361;28;20579;-70
2023/03/30 08:53:44;;;;;;;5.20;2.58;;;;;;;19.13;53.60;99882.28;5002765;28;20062;-76
2023/03/30 08:56:22;;;;;;;4.50;2.00;;;;;;;19.13;53.74;99893.69;4993839;28;20453;-69
2023/03/30 08:59:13;;;;;;;3.50;2.38;;;;;;;19.15;53.56;99896.28;5001256;28;20100;-70
2023/03/30 09:01:44;;;;;;;5.20;2.22;;;;;;;19.16;53.35;99895.34;5015544;28;20030;-69
2023/03/30 09:04:24;;;;;;;4.28;2.00;;;;;;;19.16;53.43;99895.34;5015264;28;20029;-70
2023/03/30 09:06:54;;;;;;;5.88;2.40;;;;;;;19.16;53.36;99890.06;5005660;28;20178;-68
2023/03/30 09:09:26;;;;;;;5.55;2.10;;;;;;;19.16;53.45;99895.34;5004285;28;20124;-70
2023/03/30 09:12:21;;;;;;;5.30;2.25;;;;;;;19.17;53.58;99902.34;5001971;28;20130;-71
2023/03/30 09:15:01;;;;;;;3.22;1.83;;;;;;;19.18;53.41;99904.09;4999435;28;20034;-71
2023/03/30 09:17:42;;;;;;;5.22;2.55;;;;;;;19.18;53.36;99904.09;5002153;28;20111;-71
2023/03/30 09:20:19;;;;;;;5.07;2.50;;;;;;;19.19;53.54;99896.06;5003870;28;20084;-69
2023/03/30 09:22:46;;;;;;;4.35;2.40;;;;;;;19.21;53.65;99896.00;5001749;28;20027;-72
2023/03/30 09:25:14;;;;;;;3.88;2.03;;;;;;;19.19;53.32;99897.88;5003606;28;20026;-71
2023/03/30 09:27:54;;;;;;;4.65;2.10;;;;;;;19.21;53.31;99898.63;5005005;28;20022;-71
2023/03/30 09:30:24;;;;;;;3.78;2.10;;;;;;;19.22;53.26;99899.50;5005068;28;20025;-71
2023/03/30 09:33:06;;;;;;;4.20;1.88;;;;;;;19.22;53.47;99889.75;4984649;28;20118;-71
2023/03/30 09:35:41;;;;;;;5.70;2.33;;;;;;;19.24;53.59;99902.94;5002772;28;20589;-70
2023/03/30 09:38:10;;;;;;;4.85;2.35;;;;;;;19.24;53.26;99887.94;5001850;28;20400;-70
2023/03/30 09:40:45;;;;;;;5.80;2.22;;;;;;;19.24;53.42;99887.94;5002549;28;20038;-70
2023/03/30 09:43:15;;;;;;;4.63;2.30;;;;;;;19.26;53.38;99890.47;5004926;28;20510;-70
2023/03/30 09:45:43;;;;;;;3.67;1.90;;;;;;;19.26;53.46;99896.63;5003083;28;20114;-70
2023/03/30 09:48:09;;;;;;;3.78;1.95;;;;;;;19.26;53.53;99907.22;5004303;28;20407;-69
2023/03/30 09:50:41;;;;;;;6.25;2.00;;;;;;;19.27;53.22;99913.38;5007383;28;20073;-70
2023/03/30 09:53:28;;;;;;;4.10;2.10;;;;;;;19.27;53.47;99916.88;5008989;28;20030;-69
2023/03/30 09:55:59;;;;;;;4.57;2.15;;;;;;;19.28;53.55;99921.22;4995282;28;20042;-69
2023/03/30 09:58:32;;;;;;;4.85;1.85;;;;;;;19.30;53.58;99932.63;4994357;28;20073;-69
2023/03/30 10:01:13;;;;;;;3.92;1.90;;;;;;;19.30;53.39;99935.25;4994780;28;20025;-70
2023/03/30 10:03:40;;;;;;;5.43;1.85;;;;;;;19.34;53.16;99935.09;5000585;28;20117;-68
2023/03/30 10:06:07;;;;;;;3.35;1.83;;;;;;;19.33;53.25;99934.25;4990899;28;20464;-70
2023/03/30 10:08:56;;;;;;;4.55;2.13;;;;;;;19.37;53.36;99934.97;4988849;28;20080;-70
2023/03/30 10:11:40;;;;;;;3.80;2.08;;;;;;;19.37;53.44;99932.31;4992356;28;20042;-70
2023/03/30 10:14:15;;;;;;;4.00;2.03;;;;;;;19.39;53.39;99933.09;4981933;28;20105;-71
2023/03/30 10:16:43;;;;;;;4.78;2.05;;;;;;;19.39;53.39;99922.53;4993991;28;20112;-70
2023/03/30 10:19:17;;;;;;;5.72;2.10;;;;;;;19.40;53.39;99918.94;5002702;28;20057;-70
2023/03/30 10:21:45;;;;;;;5.03;2.25;;;;;;;19.41;53.03;99920.66;5001918;28;20029;-70
2023/03/30 10:24:14;;;;;;;3.67;2.25;;;;;;;19.43;53.48;99921.47;5007352;28;20026;-70
2023/03/30 10:26:44;;;;;;;4.07;1.85;;;;;;;19.43;53.14;99921.47;5004295;28;20045;-71
2023/03/30 10:29:17;;;;;;;5.78;2.35;;;;;;;19.43;53.17;99924.09;4994037;28;20085;-69
2023/03/30 10:31:45;;;;;;;4.35;2.10;;;;;;;19.45;53.31;99932.81;4994467;28;20567;-71
2023/03/30 10:34:30;;;;;;;5.22;2.03;;;;;;;19.45;53.17;99932.81;4994220;28;20533;-70
2023/03/30 10:36:56;;;;;;;4.35;2.10;;;;;;;19.46;53.17;99926.59;4994169;28;20511;-69
2023/03/30 10:39:24;;;;;;;4.22;2.17;;;;;;;19.47;53.33;99920.38;4994054;28;20030;-68
2023/03/30 10:41:52;;;;;;;4.90;2.25;;;;;;;19.48;53.34;99927.41;4997661;28;20032;-70
2023/03/30 10:44:33;;;;;;;4.07;2.10;;;;;;;19.47;53.33;99923.03;5004872;28;20026;-70
2023/03/30 10:47:02;;;;;;;5.70;1.95;;;;;;;19.48;53.32;99922.09;5001040;28;20026;-71
2023/03/30 10:49:48;;;;;;;4.88;2.13;;;;;;;19.50;53.50;99914.94;5001701;28;20049;-70
2023/03/30 10:52:35;;;;;;;3.80;1.80;;;;;;;19.52;53.19;99913.06;5001329;28;20026;-69
2023/03/30 10:55:31;;;;;;;4.80;1.88;;;;;;;19.53;53.12;99920.09;5001051;28;20049;-70
2023/03/30 10:58:11;;;;;;;4.35;2.10;;;;;;;19.55;53.23;99918.22;4991415;28;20038;-70
2023/03/30 11:00:59;;;;;;;4.65;1.80;;;;;;;19.56;53.10;99914.63;5001215;28;20026;-70
2023/03/30 11:03:28;;;;;;;3.42;2.03;;;;;;;19.56;53.40;99901.41;4999612;28;20018;-71
2023/03/30 11:06:03;;;;;;;3.47;1.90;;;;;;;19.59;53.19;99895.97;5001019;28;20080;-70
2023/03/30 11:08:35;;;;;;;6.28;2.08;;;;;;;19.60;53.18;99873.00;5000514;28;20606;-72
2023/03/30 11:11:04;;;;;;;6.20;1.90;;;;;;;19.61;53.16;99868.56;4998310;28;20423;-71
2023/03/30 11:13:37;;;;;;;5.43;2.10;;;;;;;19.61;53.16;99880.00;5001536;28;20091;-70
2023/03/30 11:16:15;;;;;;;4.78;2.30;;;;;;;19.63;53.32;99887.88;4981170;28;20125;-70
2023/03/30 11:19:02;;;;;;;6.05;2.50;;;;;;;19.63;53.21;99888.75;5000188;28;20022;-72
2023/03/30 11:21:39;;;;;;;4.95;2.33;;;;;;;19.65;52.99;99891.28;5000151;28;20026;-71
2023/03/30 11:24:18;;;;;;;5.70;2.40;;;;;;;19.65;53.13;99891.28;4998756;28;20606;-68
2023/03/30 11:26:47;;;;;;;4.30;2.05;;;;;;;19.66;52.97;99895.69;4999029;28;20026;-79
2023/03/30 11:29:34;;;;;;;6.18;2.30;;;;;;;19.67;52.95;99889.44;4999954;28;20025;-70
2023/03/30 11:32:08;;;;;;;5.60;2.50;;;;;;;19.70;52.92;99894.56;4987817;28;21654;-71
2023/03/30 11:34:57;;;;;;;4.00;2.33;;;;;;;19.70;52.99;99884.84;4974712;28;20795;-69
2023/03/30 11:37:56;;;;;;;6.75;2.90;;;;;;;19.71;53.04;99881.28;4974634;28;20101;-71
2023/03/30 11:40:30;;;;;;;5.72;2.15;;;;;;;19.71;52.98;99872.50;4992005;28;20057;-71
2023/03/30 11:42:55;;;;;;;4.47;2.30;;;;;;;19.72;52.87;99866.25;4991617;28;21577;-70
2023/03/30 11:45:49;;;;;;;6.40;2.63;;;;;;;19.75;52.99;99870.53;4992649;28;20030;-71
2023/03/30 11:48:30;;;;;;;5.93;2.53;;;;;;;19.73;52.84;99855.56;4989672;28;20117;-71